sensor_id;sensor_type;location;lat;lon;timestamp;P1;durP1;ratioP1;P2;durP2;ratioP2
12482;SDS011;6306;47.134;15.344;2023-03-16T00:01:11;6.67;;;3.20;;
12482;SDS011;6306;47.134;15.344;2023-03-16T00:03:37;5.57;;;3.33;;
12482;SDS011;6306;47.134;15.344;2023-03-16T00:06:03;7.10;;;3.10;;
12482;SDS011;6306;47.134;15.344;2023-03-16T00:08:29;6.70;;;3.87;;
12482;SDS011;6306;47.134;15.344;2023-03-16T00:10:55;5.47;;;2.03;;
12482;SDS011;6306;47.134;15.344;2023-03-16T00:13:22;5.97;;;2.73;;
12482;SDS011;6306;47.134;15.344;2023-03-16T00:15:49;6.07;;;2.20;;
12482;SDS011;6306;47.134;15.344;2023-03-16T00:18:15;4.50;;;4.07;;
12482;SDS011;6306;47.134;15.344;2023-03-16T00:20:41;4.10;;;1.87;;
12482;SDS011;6306;47.134;15.344;2023-03-16T00:23:07;5.63;;;2.50;;
12482;SDS011;6306;47.134;15.344;2023-03-16T00:25:34;4.53;;;2.67;;
12482;SDS011;6306;47.134;15.344;2023-03-16T00:28:00;2.90;;;1.90;;
12482;SDS011;6306;47.134;15.344;2023-03-16T00:30:28;1.63;;;1.50;;
12482;SDS011;6306;47.134;15.344;2023-03-16T00:32:55;2.07;;;1.17;;
12482;SDS011;6306;47.134;15.344;2023-03-16T00:35:21;4.90;;;1.63;;
12482;SDS011;6306;47.134;15.344;2023-03-16T00:37:47;3.97;;;1.97;;
12482;SDS011;6306;47.134;15.344;2023-03-16T00:40:13;8.07;;;3.50;;
12482;SDS011;6306;47.134;15.344;2023-03-16T00:42:39;17.50;;;5.40;;
12482;SDS011;6306;47.134;15.344;2023-03-16T00:45:06;7.20;;;3.47;;
12482;SDS011;6306;47.134;15.344;2023-03-16T00:47:32;5.00;;;2.77;;
12482;SDS011;6306;47.134;15.344;2023-03-16T00:49:59;3.27;;;2.07;;
12482;SDS011;6306;47.134;15.344;2023-03-16T00:52:26;3.33;;;1.80;;
12482;SDS011;6306;47.134;15.344;2023-03-16T00:54:52;4.50;;;1.77;;
12482;SDS011;6306;47.134;15.344;2023-03-16T00:57:19;3.30;;;1.37;;
12482;SDS011;6306;47.134;15.344;2023-03-16T00:59:46;1.13;;;0.90;;
12482;SDS011;6306;47.134;15.344;2023-03-16T01:02:12;4.77;;;2.03;;
12482;SDS011;6306;47.134;15.344;2023-03-16T01:04:39;2.10;;;1.70;;
12482;SDS011;6306;47.134;15.344;2023-03-16T01:07:06;4.53;;;1.00;;
12482;SDS011;6306;47.134;15.344;2023-03-16T01:09:32;4.37;;;2.57;;
12482;SDS011;6306;47.134;15.344;2023-03-16T01:12:05;5.53;;;1.93;;
12482;SDS011;6306;47.134;15.344;2023-03-16T01:14:32;6.37;;;3.23;;
12482;SDS011;6306;47.134;15.344;2023-03-16T01:16:59;9.33;;;2.87;;
12482;SDS011;6306;47.134;15.344;2023-03-16T01:19:25;2.87;;;2.60;;
12482;SDS011;6306;47.134;15.344;2023-03-16T01:21:51;7.30;;;2.67;;
12482;SDS011;6306;47.134;15.344;2023-03-16T01:24:17;2.70;;;1.67;;
12482;SDS011;6306;47.134;15.344;2023-03-16T01:26:43;2.53;;;1.70;;
12482;SDS011;6306;47.134;15.344;2023-03-16T01:29:09;5.30;;;1.73;;
12482;SDS011;6306;47.134;15.344;2023-03-16T01:31:39;5.47;;;2.10;;
12482;SDS011;6306;47.134;15.344;2023-03-16T01:34:05;3.57;;;1.93;;
12482;SDS011;6306;47.134;15.344;2023-03-16T01:36:31;4.83;;;1.77;;
12482;SDS011;6306;47.134;15.344;2023-03-16T01:38:57;3.33;;;1.47;;
12482;SDS011;6306;47.134;15.344;2023-03-16T01:41:24;3.20;;;1.77;;
12482;SDS011;6306;47.134;15.344;2023-03-16T01:43:51;4.43;;;2.27;;
12482;SDS011;6306;47.134;15.344;2023-03-16T01:46:25;2.20;;;1.80;;
12482;SDS011;6306;47.134;15.344;2023-03-16T01:51:38;1.63;;;1.37;;
12482;SDS011;6306;47.134;15.344;2023-03-16T01:56:41;2.43;;;1.27;;
12482;SDS011;6306;47.134;15.344;2023-03-16T01:59:11;1.30;;;0.90;;
12482;SDS011;6306;47.134;15.344;2023-03-16T02:01:38;2.40;;;1.27;;
12482;SDS011;6306;47.134;15.344;2023-03-16T02:04:20;3.13;;;2.10;;
12482;SDS011;6306;47.134;15.344;2023-03-16T02:06:48;2.13;;;1.93;;
12482;SDS011;6306;47.134;15.344;2023-03-16T02:09:15;3.53;;;1.90;;
12482;SDS011;6306;47.134;15.344;2023-03-16T02:11:41;3.93;;;2.30;;
12482;SDS011;6306;47.134;15.344;2023-03-16T02:14:08;2.90;;;1.97;;
12482;SDS011;6306;47.134;15.344;2023-03-16T02:16:35;2.30;;;1.47;;
12482;SDS011;6306;47.134;15.344;2023-03-16T02:19:01;1.93;;;1.60;;
12482;SDS011;6306;47.134;15.344;2023-03-16T02:21:37;2.00;;;1.30;;
12482;SDS011;6306;47.134;15.344;2023-03-16T02:24:05;1.30;;;1.17;;
12482;SDS011;6306;47.134;15.344;2023-03-16T02:32:12;2.00;;;1.67;;
12482;SDS011;6306;47.134;15.344;2023-03-16T02:34:39;2.20;;;1.30;;
12482;SDS011;6306;47.134;15.344;2023-03-16T02:37:05;2.43;;;1.57;;
12482;SDS011;6306;47.134;15.344;2023-03-16T02:39:32;3.10;;;1.67;;
12482;SDS011;6306;47.134;15.344;2023-03-16T02:41:59;2.90;;;1.70;;
12482;SDS011;6306;47.134;15.344;2023-03-16T02:44:26;2.20;;;1.80;;
12482;SDS011;6306;47.134;15.344;2023-03-16T02:46:54;1.97;;;1.20;;
12482;SDS011;6306;47.134;15.344;2023-03-16T02:49:26;3.03;;;2.67;;
12482;SDS011;6306;47.134;15.344;2023-03-16T02:51:55;1.73;;;1.63;;
12482;SDS011;6306;47.134;15.344;2023-03-16T02:54:22;4.83;;;1.23;;
12482;SDS011;6306;47.134;15.344;2023-03-16T02:56:48;3.70;;;1.87;;
12482;SDS011;6306;47.134;15.344;2023-03-16T02:59:14;3.67;;;1.90;;
12482;SDS011;6306;47.134;15.344;2023-03-16T03:01:40;4.63;;;1.13;;
12482;SDS011;6306;47.134;15.344;2023-03-16T03:04:06;1.30;;;1.20;;
12482;SDS011;6306;47.134;15.344;2023-03-16T03:06:32;1.93;;;1.00;;
12482;SDS011;6306;47.134;15.344;2023-03-16T03:08:59;1.53;;;1.10;;
12482;SDS011;6306;47.134;15.344;2023-03-16T03:11:26;1.03;;;0.93;;
12482;SDS011;6306;47.134;15.344;2023-03-16T03:13:52;1.47;;;1.13;;
12482;SDS011;6306;47.134;15.344;2023-03-16T03:16:19;1.33;;;1.23;;
12482;SDS011;6306;47.134;15.344;2023-03-16T03:18:57;1.57;;;1.47;;
12482;SDS011;6306;47.134;15.344;2023-03-16T03:21:23;1.40;;;1.30;;
12482;SDS011;6306;47.134;15.344;2023-03-16T03:23:49;2.60;;;1.40;;
12482;SDS011;6306;47.134;15.344;2023-03-16T03:26:16;1.00;;;1.00;;
12482;SDS011;6306;47.134;15.344;2023-03-16T03:28:42;1.73;;;1.20;;
12482;SDS011;6306;47.134;15.344;2023-03-16T03:31:12;2.90;;;1.40;;
12482;SDS011;6306;47.134;15.344;2023-03-16T03:33:39;1.37;;;0.73;;
12482;SDS011;6306;47.134;15.344;2023-03-16T03:36:05;1.27;;;1.03;;
12482;SDS011;6306;47.134;15.344;2023-03-16T03:38:31;2.80;;;0.87;;
12482;SDS011;6306;47.134;15.344;2023-03-16T03:40:57;2.00;;;1.40;;
12482;SDS011;6306;47.134;15.344;2023-03-16T03:43:25;1.77;;;1.20;;
12482;SDS011;6306;47.134;15.344;2023-03-16T03:45:55;1.00;;;1.00;;
12482;SDS011;6306;47.134;15.344;2023-03-16T03:48:22;3.80;;;1.37;;
12482;SDS011;6306;47.134;15.344;2023-03-16T03:50:48;1.70;;;1.13;;
12482;SDS011;6306;47.134;15.344;2023-03-16T03:53:14;3.90;;;1.17;;
12482;SDS011;6306;47.134;15.344;2023-03-16T03:55:40;1.53;;;1.00;;
12482;SDS011;6306;47.134;15.344;2023-03-16T03:58:06;3.30;;;1.13;;
12482;SDS011;6306;47.134;15.344;2023-03-16T04:00:32;2.73;;;1.10;;
12482;SDS011;6306;47.134;15.344;2023-03-16T04:02:59;2.97;;;1.60;;
12482;SDS011;6306;47.134;15.344;2023-03-16T04:05:25;1.77;;;1.17;;
12482;SDS011;6306;47.134;15.344;2023-03-16T04:07:52;2.27;;;1.67;;
12482;SDS011;6306;47.134;15.344;2023-03-16T04:10:27;1.63;;;1.50;;
12482;SDS011;6306;47.134;15.344;2023-03-16T04:12:57;1.60;;;1.47;;
12482;SDS011;6306;47.134;15.344;2023-03-16T04:15:23;2.03;;;1.00;;
12482;SDS011;6306;47.134;15.344;2023-03-16T04:17:50;2.60;;;1.33;;
12482;SDS011;6306;47.134;15.344;2023-03-16T04:20:18;1.67;;;1.07;;
12482;SDS011;6306;47.134;15.344;2023-03-16T04:22:46;1.40;;;1.27;;
12482;SDS011;6306;47.134;15.344;2023-03-16T04:25:13;0.73;;;0.73;;
12482;SDS011;6306;47.134;15.344;2023-03-16T04:27:40;2.53;;;1.17;;
12482;SDS011;6306;47.134;15.344;2023-03-16T04:30:08;2.20;;;1.10;;
12482;SDS011;6306;47.134;15.344;2023-03-16T04:32:35;1.70;;;0.70;;
12482;SDS011;6306;47.134;15.344;2023-03-16T04:35:01;5.10;;;1.47;;
12482;SDS011;6306;47.134;15.344;2023-03-16T04:37:27;1.30;;;0.83;;
12482;SDS011;6306;47.134;15.344;2023-03-16T04:39:53;2.40;;;0.93;;
12482;SDS011;6306;47.134;15.344;2023-03-16T04:42:19;1.20;;;1.10;;
12482;SDS011;6306;47.134;15.344;2023-03-16T04:44:46;1.93;;;1.70;;
12482;SDS011;6306;47.134;15.344;2023-03-16T04:47:12;0.93;;;0.93;;
12482;SDS011;6306;47.134;15.344;2023-03-16T04:49:39;3.50;;;1.37;;
12482;SDS011;6306;47.134;15.344;2023-03-16T04:52:05;2.07;;;1.40;;
12482;SDS011;6306;47.134;15.344;2023-03-16T04:54:32;2.10;;;1.70;;
12482;SDS011;6306;47.134;15.344;2023-03-16T04:56:58;2.13;;;1.20;;
12482;SDS011;6306;47.134;15.344;2023-03-16T04:59:25;1.97;;;1.47;;
12482;SDS011;6306;47.134;15.344;2023-03-16T05:01:51;3.10;;;1.53;;
12482;SDS011;6306;47.134;15.344;2023-03-16T05:04:17;2.60;;;1.47;;
12482;SDS011;6306;47.134;15.344;2023-03-16T05:06:44;1.70;;;1.43;;
12482;SDS011;6306;47.134;15.344;2023-03-16T05:09:10;2.60;;;1.20;;
12482;SDS011;6306;47.134;15.344;2023-03-16T05:11:36;1.07;;;0.97;;
12482;SDS011;6306;47.134;15.344;2023-03-16T05:14:02;3.03;;;1.30;;
12482;SDS011;6306;47.134;15.344;2023-03-16T05:16:29;5.13;;;1.60;;
12482;SDS011;6306;47.134;15.344;2023-03-16T05:18:58;1.33;;;1.07;;
12482;SDS011;6306;47.134;15.344;2023-03-16T05:21:24;2.10;;;1.17;;
12482;SDS011;6306;47.134;15.344;2023-03-16T05:23:50;5.70;;;1.60;;
12482;SDS011;6306;47.134;15.344;2023-03-16T05:26:16;5.60;;;1.30;;
12482;SDS011;6306;47.134;15.344;2023-03-16T05:28:43;4.73;;;1.60;;
12482;SDS011;6306;47.134;15.344;2023-03-16T05:31:09;1.03;;;0.93;;
12482;SDS011;6306;47.134;15.344;2023-03-16T05:33:35;4.13;;;1.27;;
12482;SDS011;6306;47.134;15.344;2023-03-16T05:36:02;3.03;;;1.40;;
12482;SDS011;6306;47.134;15.344;2023-03-16T05:38:28;1.57;;;1.47;;
12482;SDS011;6306;47.134;15.344;2023-03-16T05:40:55;6.70;;;1.77;;
12482;SDS011;6306;47.134;15.344;2023-03-16T05:43:25;3.07;;;1.50;;
12482;SDS011;6306;47.134;15.344;2023-03-16T05:45:53;4.67;;;2.37;;
12482;SDS011;6306;47.134;15.344;2023-03-16T05:48:19;7.10;;;2.53;;
12482;SDS011;6306;47.134;15.344;2023-03-16T05:50:46;10.20;;;4.90;;
12482;SDS011;6306;47.134;15.344;2023-03-16T05:53:12;16.93;;;5.37;;
12482;SDS011;6306;47.134;15.344;2023-03-16T05:55:39;8.30;;;4.70;;
12482;SDS011;6306;47.134;15.344;2023-03-16T05:58:05;3.37;;;2.40;;
12482;SDS011;6306;47.134;15.344;2023-03-16T06:00:31;6.10;;;1.47;;
12482;SDS011;6306;47.134;15.344;2023-03-16T06:02:57;2.73;;;1.57;;
12482;SDS011;6306;47.134;15.344;2023-03-16T06:05:23;2.67;;;1.73;;
12482;SDS011;6306;47.134;15.344;2023-03-16T06:07:50;4.97;;;2.17;;
12482;SDS011;6306;47.134;15.344;2023-03-16T06:10:16;5.73;;;3.00;;
12482;SDS011;6306;47.134;15.344;2023-03-16T06:12:42;6.80;;;3.87;;
12482;SDS011;6306;47.134;15.344;2023-03-16T06:15:09;16.43;;;4.70;;
12482;SDS011;6306;47.134;15.344;2023-03-16T06:17:35;3.70;;;2.80;;
12482;SDS011;6306;47.134;15.344;2023-03-16T06:20:02;9.43;;;3.85;;
12482;SDS011;6306;47.134;15.344;2023-03-16T06:22:33;8.20;;;3.40;;
12482;SDS011;6306;47.134;15.344;2023-03-16T06:24:59;4.17;;;2.60;;
12482;SDS011;6306;47.134;15.344;2023-03-16T06:27:25;3.17;;;2.87;;
12482;SDS011;6306;47.134;15.344;2023-03-16T06:29:52;2.13;;;1.93;;
12482;SDS011;6306;47.134;15.344;2023-03-16T06:32:18;1.67;;;1.53;;
12482;SDS011;6306;47.134;15.344;2023-03-16T06:34:46;2.00;;;1.50;;
12482;SDS011;6306;47.134;15.344;2023-03-16T06:37:12;2.93;;;2.20;;
12482;SDS011;6306;47.134;15.344;2023-03-16T06:39:38;1.93;;;1.47;;
12482;SDS011;6306;47.134;15.344;2023-03-16T06:42:04;2.23;;;2.03;;
12482;SDS011;6306;47.134;15.344;2023-03-16T06:44:30;2.07;;;1.70;;
12482;SDS011;6306;47.134;15.344;2023-03-16T06:46:57;2.63;;;1.10;;
12482;SDS011;6306;47.134;15.344;2023-03-16T06:49:23;1.90;;;1.70;;
12482;SDS011;6306;47.134;15.344;2023-03-16T06:51:49;1.93;;;1.13;;
12482;SDS011;6306;47.134;15.344;2023-03-16T06:54:15;7.07;;;1.27;;
12482;SDS011;6306;47.134;15.344;2023-03-16T06:56:41;1.67;;;1.57;;
12482;SDS011;6306;47.134;15.344;2023-03-16T06:59:07;3.00;;;2.67;;
12482;SDS011;6306;47.134;15.344;2023-03-16T07:01:33;1.10;;;1.00;;
12482;SDS011;6306;47.134;15.344;2023-03-16T07:03:59;1.53;;;1.43;;
12482;SDS011;6306;47.134;15.344;2023-03-16T07:06:25;1.80;;;1.40;;
12482;SDS011;6306;47.134;15.344;2023-03-16T07:08:52;3.30;;;1.87;;
12482;SDS011;6306;47.134;15.344;2023-03-16T07:11:18;1.20;;;1.10;;
12482;SDS011;6306;47.134;15.344;2023-03-16T07:13:44;1.53;;;1.40;;
12482;SDS011;6306;47.134;15.344;2023-03-16T07:16:10;5.10;;;1.40;;
12482;SDS011;6306;47.134;15.344;2023-03-16T07:18:37;5.30;;;1.53;;
12482;SDS011;6306;47.134;15.344;2023-03-16T07:21:04;1.50;;;1.40;;
12482;SDS011;6306;47.134;15.344;2023-03-16T07:23:30;4.10;;;1.53;;
12482;SDS011;6306;47.134;15.344;2023-03-16T07:25:56;1.40;;;1.10;;
12482;SDS011;6306;47.134;15.344;2023-03-16T07:28:22;0.97;;;0.87;;
12482;SDS011;6306;47.134;15.344;2023-03-16T07:30:49;2.20;;;1.30;;
12482;SDS011;6306;47.134;15.344;2023-03-16T07:33:15;1.70;;;1.33;;
12482;SDS011;6306;47.134;15.344;2023-03-16T07:35:42;1.50;;;1.20;;
12482;SDS011;6306;47.134;15.344;2023-03-16T07:38:08;1.50;;;1.30;;
12482;SDS011;6306;47.134;15.344;2023-03-16T07:40:36;0.93;;;0.83;;
12482;SDS011;6306;47.134;15.344;2023-03-16T07:43:03;1.30;;;1.30;;
12482;SDS011;6306;47.134;15.344;2023-03-16T07:45:29;2.17;;;1.37;;
12482;SDS011;6306;47.134;15.344;2023-03-16T07:47:55;1.27;;;1.00;;
12482;SDS011;6306;47.134;15.344;2023-03-16T07:50:21;1.50;;;1.40;;
12482;SDS011;6306;47.134;15.344;2023-03-16T07:52:47;1.73;;;1.17;;
12482;SDS011;6306;47.134;15.344;2023-03-16T07:55:13;2.97;;;0.90;;
12482;SDS011;6306;47.134;15.344;2023-03-16T07:57:40;2.60;;;1.17;;
12482;SDS011;6306;47.134;15.344;2023-03-16T08:00:07;0.83;;;0.83;;
12482;SDS011;6306;47.134;15.344;2023-03-16T08:02:33;0.83;;;0.70;;
12482;SDS011;6306;47.134;15.344;2023-03-16T08:04:59;1.87;;;1.00;;
12482;SDS011;6306;47.134;15.344;2023-03-16T08:07:25;1.77;;;1.20;;
12482;SDS011;6306;47.134;15.344;2023-03-16T08:09:51;1.43;;;1.07;;
12482;SDS011;6306;47.134;15.344;2023-03-16T08:12:17;0.80;;;0.70;;
12482;SDS011;6306;47.134;15.344;2023-03-16T08:14:43;0.70;;;0.60;;
12482;SDS011;6306;47.134;15.344;2023-03-16T08:17:10;1.50;;;1.23;;
12482;SDS011;6306;47.134;15.344;2023-03-16T08:19:36;0.93;;;0.93;;
12482;SDS011;6306;47.134;15.344;2023-03-16T08:22:03;0.70;;;0.70;;
12482;SDS011;6306;47.134;15.344;2023-03-16T08:24:30;0.70;;;0.70;;
12482;SDS011;6306;47.134;15.344;2023-03-16T08:26:56;0.50;;;0.50;;
12482;SDS011;6306;47.134;15.344;2023-03-16T08:29:23;0.87;;;0.70;;
12482;SDS011;6306;47.134;15.344;2023-03-16T08:31:49;1.57;;;0.90;;
12482;SDS011;6306;47.134;15.344;2023-03-16T08:34:15;0.70;;;0.70;;
12482;SDS011;6306;47.134;15.344;2023-03-16T08:36:42;0.90;;;0.70;;
12482;SDS011;6306;47.134;15.344;2023-03-16T08:39:08;1.37;;;0.90;;
12482;SDS011;6306;47.134;15.344;2023-03-16T08:41:34;1.17;;;1.07;;
12482;SDS011;6306;47.134;15.344;2023-03-16T08:44:00;0.87;;;0.67;;
12482;SDS011;6306;47.134;15.344;2023-03-16T08:46:27;1.63;;;1.00;;
12482;SDS011;6306;47.134;15.344;2023-03-16T08:48:53;8.13;;;1.40;;
12482;SDS011;6306;47.134;15.344;2023-03-16T08:51:22;1.73;;;0.90;;
12482;SDS011;6306;47.134;15.344;2023-03-16T08:53:49;1.33;;;0.70;;
12482;SDS011;6306;47.134;15.344;2023-03-16T08:56:15;0.70;;;0.70;;
12482;SDS011;6306;47.134;15.344;2023-03-16T08:58:41;0.93;;;0.70;;
12482;SDS011;6306;47.134;15.344;2023-03-16T09:01:11;5.17;;;0.80;;
12482;SDS011;6306;47.134;15.344;2023-03-16T09:03:38;0.97;;;0.57;;
12482;SDS011;6306;47.134;15.344;2023-03-16T09:06:10;1.13;;;0.67;;
12482;SDS011;6306;47.134;15.344;2023-03-16T09:08:37;0.60;;;0.60;;
12482;SDS011;6306;47.134;15.344;2023-03-16T09:11:07;1.37;;;0.67;;
12482;SDS011;6306;47.134;15.344;2023-03-16T09:13:34;0.50;;;0.50;;
12482;SDS011;6306;47.134;15.344;2023-03-16T09:16:03;1.37;;;0.90;;
12482;SDS011;6306;47.134;15.344;2023-03-16T09:18:29;0.70;;;0.50;;
12482;SDS011;6306;47.134;15.344;2023-03-16T09:21:00;0.90;;;0.90;;
12482;SDS011;6306;47.134;15.344;2023-03-16T09:23:26;1.80;;;0.87;;
12482;SDS011;6306;47.134;15.344;2023-03-16T09:25:55;2.00;;;0.80;;
12482;SDS011;6306;47.134;15.344;2023-03-16T09:28:21;0.90;;;0.70;;
12482;SDS011;6306;47.134;15.344;2023-03-16T09:30:47;0.40;;;0.40;;
12482;SDS011;6306;47.134;15.344;2023-03-16T09:33:14;0.73;;;0.70;;
12482;SDS011;6306;47.134;15.344;2023-03-16T09:35:40;1.37;;;0.50;;
12482;SDS011;6306;47.134;15.344;2023-03-16T09:38:07;1.77;;;0.87;;
12482;SDS011;6306;47.134;15.344;2023-03-16T09:40:33;1.07;;;0.97;;
12482;SDS011;6306;47.134;15.344;2023-03-16T09:45:55;0.70;;;0.43;;
12482;SDS011;6306;47.134;15.344;2023-03-16T09:48:24;0.50;;;0.50;;
12482;SDS011;6306;47.134;15.344;2023-03-16T09:50:52;0.50;;;0.50;;
12482;SDS011;6306;47.134;15.344;2023-03-16T09:53:35;0.80;;;0.70;;
12482;SDS011;6306;47.134;15.344;2023-03-16T09:56:10;0.70;;;0.70;;
12482;SDS011;6306;47.134;15.344;2023-03-16T09:58:38;0.40;;;0.40;;
12482;SDS011;6306;47.134;15.344;2023-03-16T10:06:09;0.97;;;0.83;;
12482;SDS011;6306;47.134;15.344;2023-03-16T10:08:38;1.00;;;0.70;;
12482;SDS011;6306;47.134;15.344;2023-03-16T10:11:17;2.73;;;0.70;;
12482;SDS011;6306;47.134;15.344;2023-03-16T10:16:41;0.63;;;0.63;;
12482;SDS011;6306;47.134;15.344;2023-03-16T10:21:43;2.43;;;0.90;;
12482;SDS011;6306;47.134;15.344;2023-03-16T10:26:55;0.60;;;0.50;;
12482;SDS011;6306;47.134;15.344;2023-03-16T10:29:26;1.37;;;0.70;;
12482;SDS011;6306;47.134;15.344;2023-03-16T10:31:57;1.47;;;0.90;;
12482;SDS011;6306;47.134;15.344;2023-03-16T10:34:25;1.73;;;0.70;;
12482;SDS011;6306;47.134;15.344;2023-03-16T10:36:51;6.13;;;1.13;;
12482;SDS011;6306;47.134;15.344;2023-03-16T10:39:19;0.67;;;0.67;;
12482;SDS011;6306;47.134;15.344;2023-03-16T10:41:47;3.43;;;0.77;;
12482;SDS011;6306;47.134;15.344;2023-03-16T10:44:23;1.17;;;0.80;;
12482;SDS011;6306;47.134;15.344;2023-03-16T10:46:56;0.83;;;0.83;;
12482;SDS011;6306;47.134;15.344;2023-03-16T10:49:42;1.20;;;0.70;;
12482;SDS011;6306;47.134;15.344;2023-03-16T10:52:24;0.50;;;0.50;;
12482;SDS011;6306;47.134;15.344;2023-03-16T10:54:58;0.67;;;0.60;;
12482;SDS011;6306;47.134;15.344;2023-03-16T10:57:31;2.00;;;0.80;;
12482;SDS011;6306;47.134;15.344;2023-03-16T10:59:59;0.70;;;0.70;;
12482;SDS011;6306;47.134;15.344;2023-03-16T11:02:32;3.70;;;0.90;;
12482;SDS011;6306;47.134;15.344;2023-03-16T11:04:58;0.60;;;0.60;;
12482;SDS011;6306;47.134;15.344;2023-03-16T11:07:25;2.30;;;1.03;;
12482;SDS011;6306;47.134;15.344;2023-03-16T11:09:52;0.87;;;0.70;;
12482;SDS011;6306;47.134;15.344;2023-03-16T11:12:27;1.97;;;0.70;;
12482;SDS011;6306;47.134;15.344;2023-03-16T11:14:54;1.87;;;0.60;;
12482;SDS011;6306;47.134;15.344;2023-03-16T11:17:36;1.23;;;0.60;;
12482;SDS011;6306;47.134;15.344;2023-03-16T11:20:04;2.80;;;1.20;;
12482;SDS011;6306;47.134;15.344;2023-03-16T11:22:38;9.40;;;1.07;;
12482;SDS011;6306;47.134;15.344;2023-03-16T11:25:11;4.17;;;1.00;;
12482;SDS011;6306;47.134;15.344;2023-03-16T11:27:42;0.83;;;0.70;;
12482;SDS011;6306;47.134;15.344;2023-03-16T11:32:38;1.07;;;0.90;;
12482;SDS011;6306;47.134;15.344;2023-03-16T11:35:14;0.60;;;0.60;;
12482;SDS011;6306;47.134;15.344;2023-03-16T11:37:55;0.93;;;0.70;;
12482;SDS011;6306;47.134;15.344;2023-03-16T11:50:57;1.70;;;1.20;;
12482;SDS011;6306;47.134;15.344;2023-03-16T11:56:02;0.67;;;0.67;;
12482;SDS011;6306;47.134;15.344;2023-03-16T12:01:10;0.93;;;0.60;;
12482;SDS011;6306;47.134;15.344;2023-03-16T12:09:18;1.90;;;0.57;;
12482;SDS011;6306;47.134;15.344;2023-03-16T12:11:55;5.17;;;0.80;;
12482;SDS011;6306;47.134;15.344;2023-03-16T12:14:26;0.77;;;0.60;;
12482;SDS011;6306;47.134;15.344;2023-03-16T12:22:05;1.43;;;0.70;;
12482;SDS011;6306;47.134;15.344;2023-03-16T12:24:34;1.13;;;0.90;;
12482;SDS011;6306;47.134;15.344;2023-03-16T12:27:03;0.50;;;0.50;;
12482;SDS011;6306;47.134;15.344;2023-03-16T12:29:36;0.70;;;0.70;;
12482;SDS011;6306;47.134;15.344;2023-03-16T12:32:08;1.20;;;0.80;;
12482;SDS011;6306;47.134;15.344;2023-03-16T12:34:40;1.40;;;0.70;;
12482;SDS011;6306;47.134;15.344;2023-03-16T12:37:15;1.13;;;0.97;;
12482;SDS011;6306;47.134;15.344;2023-03-16T12:45:00;1.77;;;0.87;;
12482;SDS011;6306;47.134;15.344;2023-03-16T12:50:13;1.00;;;0.90;;
12482;SDS011;6306;47.134;15.344;2023-03-16T12:52:44;3.27;;;0.77;;
12482;SDS011;6306;47.134;15.344;2023-03-16T12:55:14;4.20;;;1.03;;
12482;SDS011;6306;47.134;15.344;2023-03-16T12:57:42;2.30;;;1.27;;
12482;SDS011;6306;47.134;15.344;2023-03-16T13:00:09;2.17;;;0.80;;
12482;SDS011;6306;47.134;15.344;2023-03-16T13:02:36;6.07;;;1.13;;
12482;SDS011;6306;47.134;15.344;2023-03-16T13:05:45;6.90;;;0.77;;
12482;SDS011;6306;47.134;15.344;2023-03-16T13:08:02;0.87;;;0.87;;
12482;SDS011;6306;47.134;15.344;2023-03-16T13:10:29;1.63;;;0.90;;
12482;SDS011;6306;47.134;15.344;2023-03-16T13:12:55;1.00;;;0.83;;
12482;SDS011;6306;47.134;15.344;2023-03-16T13:15:31;1.60;;;0.73;;
12482;SDS011;6306;47.134;15.344;2023-03-16T13:18:02;6.00;;;0.90;;
12482;SDS011;6306;47.134;15.344;2023-03-16T13:20:29;2.40;;;0.77;;
12482;SDS011;6306;47.134;15.344;2023-03-16T13:23:06;1.80;;;0.60;;
12482;SDS011;6306;47.134;15.344;2023-03-16T13:25:37;2.20;;;0.73;;
12482;SDS011;6306;47.134;15.344;2023-03-16T13:28:04;1.47;;;1.13;;
12482;SDS011;6306;47.134;15.344;2023-03-16T13:30:32;2.20;;;1.70;;
12482;SDS011;6306;47.134;15.344;2023-03-16T13:33:08;2.60;;;0.80;;
12482;SDS011;6306;47.134;15.344;2023-03-16T13:35:38;1.67;;;0.90;;
12482;SDS011;6306;47.134;15.344;2023-03-16T13:38:05;1.43;;;1.10;;
12482;SDS011;6306;47.134;15.344;2023-03-16T13:40:32;0.60;;;0.50;;
12482;SDS011;6306;47.134;15.344;2023-03-16T13:43:00;0.60;;;0.60;;
12482;SDS011;6306;47.134;15.344;2023-03-16T13:45:27;0.97;;;0.80;;
12482;SDS011;6306;47.134;15.344;2023-03-16T13:47:53;1.43;;;1.00;;
12482;SDS011;6306;47.134;15.344;2023-03-16T13:50:19;0.90;;;0.73;;
12482;SDS011;6306;47.134;15.344;2023-03-16T13:52:55;0.83;;;0.67;;
12482;SDS011;6306;47.134;15.344;2023-03-16T13:55:26;1.37;;;0.80;;
12482;SDS011;6306;47.134;15.344;2023-03-16T13:57:54;2.27;;;1.00;;
12482;SDS011;6306;47.134;15.344;2023-03-16T14:00:25;1.70;;;1.03;;
12482;SDS011;6306;47.134;15.344;2023-03-16T14:02:58;1.43;;;1.03;;
12482;SDS011;6306;47.134;15.344;2023-03-16T14:05:29;1.03;;;0.70;;
12482;SDS011;6306;47.134;15.344;2023-03-16T14:07:55;1.07;;;0.97;;
12482;SDS011;6306;47.134;15.344;2023-03-16T14:10:25;1.10;;;0.80;;
12482;SDS011;6306;47.134;15.344;2023-03-16T14:12:56;0.70;;;0.70;;
12482;SDS011;6306;47.134;15.344;2023-03-16T14:15:26;1.30;;;1.10;;
12482;SDS011;6306;47.134;15.344;2023-03-16T14:17:52;2.10;;;0.83;;
12482;SDS011;6306;47.134;15.344;2023-03-16T14:20:21;1.90;;;1.17;;
12482;SDS011;6306;47.134;15.344;2023-03-16T14:22:49;0.93;;;0.80;;
12482;SDS011;6306;47.134;15.344;2023-03-16T14:25:20;6.10;;;1.60;;
12482;SDS011;6306;47.134;15.344;2023-03-16T14:27:48;0.90;;;0.90;;
12482;SDS011;6306;47.134;15.344;2023-03-16T14:30:23;1.07;;;0.90;;
12482;SDS011;6306;47.134;15.344;2023-03-16T14:33:03;0.50;;;0.50;;
12482;SDS011;6306;47.134;15.344;2023-03-16T14:35:32;1.17;;;1.07;;
12482;SDS011;6306;47.134;15.344;2023-03-16T14:40:50;0.80;;;0.73;;
12482;SDS011;6306;47.134;15.344;2023-03-16T14:43:17;6.13;;;1.17;;
12482;SDS011;6306;47.134;15.344;2023-03-16T14:45:46;0.93;;;0.73;;
12482;SDS011;6306;47.134;15.344;2023-03-16T14:48:13;1.10;;;1.07;;
12482;SDS011;6306;47.134;15.344;2023-03-16T14:50:44;2.20;;;1.00;;
12482;SDS011;6306;47.134;15.344;2023-03-16T14:53:12;0.60;;;0.60;;
12482;SDS011;6306;47.134;15.344;2023-03-16T14:55:38;0.63;;;0.63;;
12482;SDS011;6306;47.134;15.344;2023-03-16T14:58:05;2.30;;;0.80;;
12482;SDS011;6306;47.134;15.344;2023-03-16T15:00:31;1.63;;;0.73;;
12482;SDS011;6306;47.134;15.344;2023-03-16T15:03:04;1.93;;;1.10;;
12482;SDS011;6306;47.134;15.344;2023-03-16T15:05:38;1.80;;;0.87;;
12482;SDS011;6306;47.134;15.344;2023-03-16T15:08:06;0.73;;;0.73;;
12482;SDS011;6306;47.134;15.344;2023-03-16T15:10:34;2.70;;;1.30;;
12482;SDS011;6306;47.134;15.344;2023-03-16T15:13:01;3.40;;;1.67;;
12482;SDS011;6306;47.134;15.344;2023-03-16T15:15:37;3.47;;;1.33;;
12482;SDS011;6306;47.134;15.344;2023-03-16T15:18:04;1.60;;;0.90;;
12482;SDS011;6306;47.134;15.344;2023-03-16T15:20:35;3.03;;;1.07;;
12482;SDS011;6306;47.134;15.344;2023-03-16T15:23:03;1.17;;;0.90;;
12482;SDS011;6306;47.134;15.344;2023-03-16T15:28:00;0.80;;;0.80;;
12482;SDS011;6306;47.134;15.344;2023-03-16T15:30:27;1.17;;;0.90;;
12482;SDS011;6306;47.134;15.344;2023-03-16T15:32:54;1.27;;;1.13;;
12482;SDS011;6306;47.134;15.344;2023-03-16T15:35:20;1.60;;;0.80;;
12482;SDS011;6306;47.134;15.344;2023-03-16T15:37:47;1.70;;;1.07;;
12482;SDS011;6306;47.134;15.344;2023-03-16T15:40:14;1.03;;;0.70;;
12482;SDS011;6306;47.134;15.344;2023-03-16T15:42:41;1.10;;;0.57;;
12482;SDS011;6306;47.134;15.344;2023-03-16T15:45:11;0.80;;;0.80;;
12482;SDS011;6306;47.134;15.344;2023-03-16T15:47:37;2.50;;;1.40;;
12482;SDS011;6306;47.134;15.344;2023-03-16T15:50:05;3.80;;;1.70;;
12482;SDS011;6306;47.134;15.344;2023-03-16T15:52:32;6.10;;;1.20;;
12482;SDS011;6306;47.134;15.344;2023-03-16T15:55:00;1.67;;;1.10;;
12482;SDS011;6306;47.134;15.344;2023-03-16T15:57:31;7.53;;;1.60;;
12482;SDS011;6306;47.134;15.344;2023-03-16T15:59:58;1.37;;;1.00;;
12482;SDS011;6306;47.134;15.344;2023-03-16T16:02:28;1.63;;;1.53;;